createdAt,value
2018-01-07T00:00:04.648Z,0
2018-01-07T00:05:03.249Z,0
2018-01-07T00:10:03.377Z,0
2018-01-07T00:15:02.816Z,0
2018-01-07T00:20:03.324Z,0
2018-01-07T00:25:02.855Z,0
2018-01-07T00:30:02.463Z,0
2018-01-07T00:35:02.977Z,0
2018-01-07T00:40:02.545Z,0
2018-01-07T00:45:03.206Z,0
2018-01-07T00:50:02.739Z,0
2018-01-07T00:55:03.398Z,0
2018-01-07T01:00:02.927Z,0
2018-01-07T01:05:03.374Z,0
2018-01-07T01:10:03.117Z,0
2018-01-07T01:15:02.984Z,0
2018-01-07T01:20:02.678Z,0
2018-01-07T01:25:03.226Z,0
2018-01-07T01:30:02.755Z,0
2018-01-07T01:35:02.494Z,0
2018-01-07T01:40:03.045Z,0
2018-01-07T01:45:02.636Z,0
2018-01-07T01:50:03.206Z,0
2018-01-07T01:55:02.699Z,0
2018-01-07T02:00:03.290Z,0
2018-01-07T02:05:02.694Z,0
2018-01-07T02:10:03.302Z,0
2018-01-07T02:15:02.932Z,0
2018-01-07T02:20:03.438Z,0
2018-01-07T02:25:02.944Z,0
2018-01-07T02:30:02.623Z,0
2018-01-07T02:35:03.253Z,0
2018-01-07T02:40:02.935Z,0
2018-01-07T02:45:02.630Z,0
2018-01-07T02:50:03.215Z,0
2018-01-07T02:55:02.820Z,0
2018-01-07T03:00:03.414Z,0
2018-01-07T03:05:03.061Z,0
2018-01-07T03:10:02.642Z,0
2018-01-07T03:15:03.121Z,0
2018-01-07T03:20:02.750Z,0
2018-01-07T03:25:03.275Z,0
2018-01-07T03:30:02.884Z,0
2018-01-07T03:35:02.541Z,0
2018-01-07T03:40:03.175Z,0
2018-01-07T03:45:02.831Z,0
2018-01-07T03:50:03.423Z,0
2018-01-07T03:55:02.966Z,0
2018-01-07T04:00:02.475Z,0
2018-01-07T04:05:03.062Z,0
2018-01-07T04:10:02.756Z,0
2018-01-07T04:15:03.392Z,0
2018-01-07T04:20:02.951Z,0
2018-01-07T04:25:02.604Z,0
2018-01-07T04:30:03.210Z,0
2018-01-07T04:35:02.872Z,0
2018-01-07T04:40:03.444Z,0
2018-01-07T04:45:02.884Z,0
2018-01-07T04:50:02.570Z,0
2018-01-07T04:55:03.006Z,0
2018-01-07T05:00:02.609Z,0
2018-01-07T05:05:03.182Z,0
2018-01-07T05:10:02.668Z,0
2018-01-07T05:15:03.106Z,0
2018-01-07T05:20:02.577Z,0
2018-01-07T05:25:03.029Z,0
2018-01-07T05:30:02.991Z,0
2018-01-07T05:35:02.690Z,0
2018-01-07T05:40:03.351Z,0
2018-01-07T05:45:02.744Z,0
2018-01-07T05:50:02.827Z,0
2018-01-07T05:55:03.309Z,0
2018-01-07T06:00:02.940Z,0
2018-01-07T06:05:02.474Z,0
2018-01-07T06:10:03.140Z,0
2018-01-07T06:15:02.689Z,0
2018-01-07T06:20:03.122Z,0
2018-01-07T06:25:02.756Z,0
2018-01-07T06:30:03.235Z,0
2018-01-07T06:35:02.803Z,0
2018-01-07T06:40:03.390Z,0
2018-01-07T06:45:02.886Z,0
2018-01-07T06:50:02.526Z,0
2018-01-07T06:55:03.124Z,0
2018-01-07T07:00:02.572Z,0
2018-01-07T07:05:03.025Z,1
2018-01-07T07:10:02.636Z,3
2018-01-07T07:15:03.161Z,9
2018-01-07T07:20:02.631Z,18
2018-01-07T07:25:03.398Z,38
2018-01-07T07:30:03.190Z,51
2018-01-07T07:35:02.809Z,63
2018-01-07T07:40:03.447Z,78
2018-01-07T07:45:03.016Z,92
2018-01-07T07:50:02.727Z,216
2018-01-07T07:55:03.225Z,299
2018-01-07T08:00:02.972Z,350
2018-01-07T08:05:02.840Z,410
2018-01-07T08:10:02.469Z,478
2018-01-07T08:15:03.133Z,549
2018-01-07T08:20:02.756Z,657
2018-01-07T08:25:03.292Z,773
2018-01-07T08:30:02.766Z,908
2018-01-07T08:35:03.224Z,1000
2018-01-07T08:40:02.915Z,1000
2018-01-07T08:45:02.591Z,1000
2018-01-07T08:50:03.262Z,1000
2018-01-07T08:55:02.785Z,1000
2018-01-07T09:00:03.381Z,1000
2018-01-07T09:05:02.909Z,2000
2018-01-07T09:10:02.651Z,3000
2018-01-07T09:15:03.152Z,5000
2018-01-07T09:20:02.834Z,5000
2018-01-07T09:25:03.316Z,5000
2018-01-07T09:30:03.175Z,6000
2018-01-07T09:35:02.832Z,9000
2018-01-07T09:40:02.478Z,12000
2018-01-07T09:45:03.142Z,9000
2018-01-07T09:50:02.918Z,14000
2018-01-07T09:55:02.451Z,17000
2018-01-07T10:00:03.106Z,8000
2018-01-07T10:05:02.718Z,24000
2018-01-07T10:10:03.348Z,24000
2018-01-07T10:15:02.821Z,21000
2018-01-07T10:20:02.593Z,21000
2018-01-07T10:25:03.020Z,21000
2018-01-07T10:30:02.521Z,21000
2018-01-07T10:35:03.269Z,21000
2018-01-07T10:40:02.791Z,21000
2018-01-07T10:45:03.318Z,21000
2018-01-07T10:50:02.864Z,17000
2018-01-07T10:55:03.428Z,17000
2018-01-07T11:00:03.110Z,17000
2018-01-07T11:05:02.665Z,13000
2018-01-07T11:10:03.267Z,13000
2018-01-07T11:15:02.809Z,13000
2018-01-07T11:20:03.289Z,21000
2018-01-07T11:25:02.764Z,22000
2018-01-07T11:30:03.416Z,20000
2018-01-07T11:35:02.980Z,20000
2018-01-07T11:40:02.838Z,17000
2018-01-07T11:45:02.506Z,12000
2018-01-07T11:50:03.056Z,12000
2018-01-07T11:55:02.516Z,7000
2018-01-07T12:00:02.943Z,8000
2018-01-07T12:05:02.666Z,3000
2018-01-07T12:10:03.264Z,4000
2018-01-07T12:15:02.964Z,3000
2018-01-07T12:20:02.612Z,3000
2018-01-07T12:25:02.495Z,3000
2018-01-07T12:30:03.136Z,3000
2018-01-07T12:35:02.637Z,3000
2018-01-07T12:40:03.309Z,2000
2018-01-07T12:45:02.824Z,2000
2018-01-07T12:50:03.390Z,2000
2018-01-07T12:55:03.052Z,2000
2018-01-07T13:00:02.695Z,2000
2018-01-07T13:05:03.260Z,2000
2018-01-07T13:10:02.811Z,2000
2018-01-07T13:15:02.524Z,2000
2018-01-07T13:20:03.241Z,2000
2018-01-07T13:25:02.827Z,2000
2018-01-07T13:30:03.265Z,2000
2018-01-07T13:35:02.908Z,2000
2018-01-07T13:40:02.478Z,2000
2018-01-07T13:45:03.015Z,2000
2018-01-07T13:50:02.622Z,2000
2018-01-07T13:55:03.476Z,1000
2018-01-07T14:00:02.984Z,1000
2018-01-07T14:05:02.689Z,1000
2018-01-07T14:10:03.402Z,1000
2018-01-07T14:15:03.053Z,4000
2018-01-07T14:20:02.816Z,3000
2018-01-07T14:25:03.378Z,1000
2018-01-07T14:30:02.919Z,1000
2018-01-07T14:35:02.561Z,1000
2018-01-07T14:40:03.071Z,1000
2018-01-07T14:45:02.618Z,1000
2018-01-07T14:50:03.338Z,1000
2018-01-07T14:55:03.048Z,1000
2018-01-07T15:00:02.487Z,953
2018-01-07T15:05:03.139Z,868
2018-01-07T15:10:02.831Z,785
2018-01-07T15:15:02.544Z,683
2018-01-07T15:20:03.024Z,565
2018-01-07T15:25:02.668Z,504
2018-01-07T15:30:03.335Z,367
2018-01-07T15:35:03.050Z,269
2018-01-07T15:40:02.560Z,159
2018-01-07T15:45:03.178Z,81
2018-01-07T15:50:02.849Z,66
2018-01-07T15:55:02.475Z,55
2018-01-07T16:00:02.985Z,41
2018-01-07T16:05:02.610Z,26
2018-01-07T16:10:03.146Z,14
2018-01-07T16:15:02.748Z,7
2018-01-07T16:20:03.280Z,3
2018-01-07T16:25:02.835Z,1
2018-01-07T16:30:02.447Z,0
2018-01-07T16:35:03.045Z,0
2018-01-07T16:40:02.590Z,0
2018-01-07T16:45:02.976Z,0
2018-01-07T16:50:02.688Z,0
2018-01-07T16:55:03.351Z,0
2018-01-07T17:00:02.969Z,0
2018-01-07T17:05:02.565Z,0
2018-01-07T17:10:03.130Z,0
2018-01-07T17:15:02.562Z,0
2018-01-07T17:20:03.094Z,0
2018-01-07T17:25:02.634Z,0
2018-01-07T17:30:03.240Z,0
2018-01-07T17:35:02.718Z,0
2018-01-07T17:40:03.442Z,0
2018-01-07T17:45:02.859Z,0
2018-01-07T17:50:03.411Z,0
2018-01-07T17:55:02.914Z,0
2018-01-07T18:00:02.617Z,0
2018-01-07T18:05:03.292Z,0
2018-01-07T18:10:02.804Z,0
2018-01-07T18:15:03.460Z,0
2018-01-07T18:20:02.914Z,0
2018-01-07T18:25:02.464Z,0
2018-01-07T18:30:02.980Z,0
2018-01-07T18:35:02.612Z,0
2018-01-07T18:40:03.176Z,0
2018-01-07T18:45:02.693Z,0
2018-01-07T18:50:03.380Z,0
2018-01-07T18:55:03.014Z,0
2018-01-07T19:00:02.661Z,0
2018-01-07T19:05:03.148Z,0
2018-01-07T19:10:02.862Z,0
2018-01-07T19:15:02.557Z,0
2018-01-07T19:20:03.121Z,0
2018-01-07T19:25:02.550Z,0
2018-01-07T19:30:03.096Z,0
2018-01-07T19:35:02.553Z,0
2018-01-07T19:40:03.152Z,0
2018-01-07T19:45:02.616Z,0
2018-01-07T19:50:03.164Z,0
2018-01-07T19:55:02.725Z,0
2018-01-07T20:00:02.518Z,0
2018-01-07T20:05:03.489Z,0
2018-01-07T20:10:03.339Z,0
2018-01-07T20:15:03.057Z,0
2018-01-07T20:20:02.611Z,0
2018-01-07T20:25:03.068Z,0
2018-01-07T20:30:02.794Z,0
2018-01-07T20:35:02.878Z,0
2018-01-07T20:40:02.952Z,0
2018-01-07T20:45:02.935Z,0
2018-01-07T20:50:02.680Z,0
2018-01-07T20:55:03.310Z,0
2018-01-07T21:00:02.950Z,0
2018-01-07T21:05:02.641Z,0
2018-01-07T21:10:03.294Z,0
2018-01-07T21:15:02.903Z,0
2018-01-07T21:20:02.426Z,0
2018-01-07T21:25:03.054Z,0
2018-01-07T21:30:02.696Z,0
2018-01-07T21:35:03.128Z,0
2018-01-07T21:40:02.714Z,0
2018-01-07T21:45:03.154Z,0
2018-01-07T21:50:02.816Z,0
2018-01-07T21:55:02.521Z,0
2018-01-07T22:05:02.861Z,0
2018-01-07T22:10:03.482Z,0
2018-01-07T22:15:03.107Z,0
2018-01-07T22:20:02.745Z,0
2018-01-07T22:25:03.420Z,0
2018-01-07T22:30:02.866Z,0
2018-01-07T22:35:03.450Z,0
2018-01-07T22:40:03.052Z,0
2018-01-07T22:45:02.563Z,0
2018-01-07T22:50:03.044Z,0
2018-01-07T22:55:02.511Z,0
2018-01-07T23:05:02.790Z,0
2018-01-07T23:10:02.523Z,0
2018-01-07T23:15:03.155Z,0
2018-01-07T23:20:02.619Z,0
2018-01-07T23:25:03.239Z,0
2018-01-07T23:30:02.763Z,0
2018-01-07T23:35:02.460Z,0
2018-01-07T23:40:03.142Z,0
2018-01-07T23:45:02.599Z,0
2018-01-07T23:55:02.924Z,0
